Time;durP1;ratioP1;P1;durP2;ratioP2;P2;SDS_P1;SDS_P2;PMS_P1;PMS_P2;Temp;Humidity;BMP_temperature;BMP_pressure;BME280_temperature;BME280_humidity;BME280_pressure;Samples;Min_cycle;Max_cycle;Signal;HPM_P1;HPM_P2
2023/05/13 00:02:15;;;;;;;10.38;5.90;;;;;;;;;;7370516;19;20005;-67
2023/05/13 00:04:41;;;;;;;9.75;6.07;;;;;;;;;;7393300;19;19998;-67
2023/05/13 00:07:06;;;;;;;11.73;5.60;;;;;;;;;;7367832;19;20006;-67
2023/05/13 00:09:31;;;;;;;10.85;5.70;;;;;;;;;;7371978;19;20814;-67
2023/05/13 00:11:57;;;;;;;13.57;6.22;;;;;;;;;;7371735;19;20524;-67
2023/05/13 00:14:22;;;;;;;11.85;5.97;;;;;;;;;;7371300;19;20092;-67
2023/05/13 00:16:47;;;;;;;12.13;5.80;;;;;;;;;;7390608;19;19998;-67
2023/05/13 00:19:13;;;;;;;15.75;6.38;;;;;;;;;;7370737;19;20010;-67
2023/05/13 00:21:38;;;;;;;10.38;6.13;;;;;;;;;;7370712;19;20058;-67
2023/05/13 00:24:04;;;;;;;27.20;6.82;;;;;;;;;;7370405;19;20040;-67
2023/05/13 00:26:29;;;;;;;18.40;6.45;;;;;;;;;;7379173;19;20017;-67
2023/05/13 00:28:55;;;;;;;22.65;6.47;;;;;;;;;;7394394;19;20002;-67
2023/05/13 00:31:20;;;;;;;19.10;6.75;;;;;;;;;;7370398;19;20430;-67
2023/05/13 00:33:46;;;;;;;21.63;6.88;;;;;;;;;;7369905;19;20108;-67
2023/05/13 00:36:11;;;;;;;18.77;6.25;;;;;;;;;;7369285;19;20018;-67
2023/05/13 00:38:36;;;;;;;17.90;5.97;;;;;;;;;;7369658;19;20089;-67
2023/05/13 00:41:02;;;;;;;19.67;6.72;;;;;;;;;;7370525;19;20355;-67
2023/05/13 00:43:27;;;;;;;36.05;7.43;;;;;;;;;;7395302;19;19999;-67
2023/05/13 00:45:53;;;;;;;14.95;6.35;;;;;;;;;;7372641;19;20055;-67
2023/05/13 00:48:19;;;;;;;18.40;6.60;;;;;;;;;;7369577;19;20010;-67
2023/05/13 00:50:44;;;;;;;13.77;5.57;;;;;;;;;;7371109;19;20013;-67
2023/05/13 00:53:11;;;;;;;18.27;6.10;;;;;;;;;;7371920;19;20010;-67
2023/05/13 00:55:41;;;;;;;17.40;6.30;;;;;;;;;;7393448;19;20002;-67
2023/05/13 00:58:06;;;;;;;16.95;7.22;;;;;;;;;;7372719;19;20516;-67
2023/05/13 01:00:36;;;;;;;15.13;5.85;;;;;;;;;;7375771;19;20010;-67
2023/05/13 01:03:05;;;;;;;12.88;6.65;;;;;;;;;;7376356;19;20010;-67
2023/05/13 01:05:40;;;;;;;16.88;5.80;;;;;;;;;;7375649;19;20024;-67
2023/05/13 01:08:12;;;;;;;20.92;5.80;;;;;;;;;;7368486;19;20007;-66
2023/05/13 01:10:53;;;;;;;17.85;5.63;;;;;;;;;;7393567;19;20010;-66
2023/05/13 01:13:27;;;;;;;19.50;5.13;;;;;;;;;;7372927;19;20100;-66
2023/05/13 01:16:28;;;;;;;8.35;4.57;;;;;;;;;;7375637;19;20493;-67
2023/05/13 01:18:58;;;;;;;;;;;;;;;;;;7379230;19;20033;-67
2023/05/13 01:21:27;;;;;;;12.13;4.95;;;;;;;;;;7378521;19;19939;-67
2023/05/13 01:23:53;;;;;;;20.55;5.03;;;;;;;;;;7377433;19;20017;-68
2023/05/13 01:26:19;;;;;;;14.90;5.38;;;;;;;;;;7376627;19;20011;-67
2023/05/13 01:28:45;;;;;;;17.88;5.60;;;;;;;;;;7397454;19;20006;-67
2023/05/13 01:31:12;;;;;;;13.18;5.63;;;;;;;;;;7375577;19;20058;-68
2023/05/13 01:33:38;;;;;;;15.18;5.55;;;;;;;;;;7376250;19;20392;-68
2023/05/13 01:36:03;;;;;;;18.67;5.25;;;;;;;;;;7374393;19;20014;-68
2023/05/13 01:38:30;;;;;;;16.85;5.80;;;;;;;;;;7376289;19;20029;-68
2023/05/13 01:40:57;;;;;;;18.15;5.15;;;;;;;;;;7398059;19;20006;-68
2023/05/13 01:43:22;;;;;;;17.20;5.65;;;;;;;;;;7380962;19;20070;-67
2023/05/13 01:45:48;;;;;;;22.02;6.25;;;;;;;;;;7380372;19;20050;-67
2023/05/13 01:48:13;;;;;;;19.73;6.05;;;;;;;;;;7374700;19;20010;-67
2023/05/13 01:50:38;;;;;;;18.63;6.28;;;;;;;;;;7375297;19;20027;-68
2023/05/13 01:53:04;;;;;;;21.10;5.57;;;;;;;;;;7376006;19;20070;-67
2023/05/13 01:55:29;;;;;;;16.38;5.57;;;;;;;;;;7395215;19;19999;-66
2023/05/13 01:57:54;;;;;;;17.80;5.68;;;;;;;;;;7371010;19;20014;-67
2023/05/13 02:00:20;;;;;;;14.60;5.28;;;;;;;;;;7374770;19;20010;-66
2023/05/13 02:02:46;;;;;;;11.60;4.18;;;;;;;;;;7374430;19;20025;-67
2023/05/13 02:05:11;;;;;;;8.85;4.22;;;;;;;;;;7375128;19;20007;-68
2023/05/13 02:07:36;;;;;;;13.48;4.55;;;;;;;;;;7394205;19;20006;-67
2023/05/13 02:10:02;;;;;;;11.82;4.80;;;;;;;;;;7374947;19;20007;-67
2023/05/13 02:12:27;;;;;;;11.23;4.72;;;;;;;;;;7374701;19;20009;-67
2023/05/13 02:14:54;;;;;;;7.50;4.63;;;;;;;;;;7375123;19;20614;-67
2023/05/13 02:17:20;;;;;;;10.27;4.15;;;;;;;;;;7377880;19;20481;-68
2023/05/13 02:19:45;;;;;;;9.02;4.90;;;;;;;;;;7408972;19;20037;-67
2023/05/13 02:22:10;;;;;;;11.27;5.03;;;;;;;;;;7386165;19;20750;-67
2023/05/13 02:24:38;;;;;;;13.35;4.95;;;;;;;;;;7386382;19;20013;-67
2023/05/13 02:27:04;;;;;;;8.07;4.20;;;;;;;;;;7374761;19;20006;-67
2023/05/13 02:29:30;;;;;;;11.77;5.13;;;;;;;;;;7373724;19;20010;-68
2023/05/13 02:31:55;;;;;;;11.68;4.88;;;;;;;;;;7395085;19;20480;-67
2023/05/13 02:34:20;;;;;;;10.48;5.07;;;;;;;;;;7374096;19;20041;-67
2023/05/13 02:36:47;;;;;;;10.00;4.95;;;;;;;;;;7373696;19;20007;-67
2023/05/13 02:39:13;;;;;;;11.73;4.38;;;;;;;;;;7374668;19;20013;-67
2023/05/13 02:41:38;;;;;;;9.75;4.88;;;;;;;;;;7374572;19;20082;-67
2023/05/13 02:44:03;;;;;;;20.33;5.35;;;;;;;;;;7375433;19;19998;-67
2023/05/13 02:46:32;;;;;;;11.90;4.68;;;;;;;;;;7399936;19;20445;-67
2023/05/13 02:48:58;;;;;;;15.50;5.05;;;;;;;;;;7372990;19;20007;-67
2023/05/13 02:51:23;;;;;;;14.63;5.50;;;;;;;;;;7374340;19;20111;-66
2023/05/13 02:53:49;;;;;;;17.63;4.95;;;;;;;;;;7375622;19;20066;-66
2023/05/13 02:56:15;;;;;;;9.85;5.40;;;;;;;;;;7379939;19;20009;-66
2023/05/13 02:58:41;;;;;;;7.90;4.00;;;;;;;;;;7405824;19;20008;-67
2023/05/13 03:01:06;;;;;;;6.88;4.13;;;;;;;;;;7384939;19;20497;-67
2023/05/13 03:03:31;;;;;;;7.53;4.57;;;;;;;;;;7376606;19;20010;-67
2023/05/13 03:05:57;;;;;;;9.52;4.57;;;;;;;;;;7377846;19;20027;-68
2023/05/13 03:08:22;;;;;;;7.10;4.40;;;;;;;;;;7372417;19;20031;-68
2023/05/13 03:10:47;;;;;;;14.82;4.60;;;;;;;;;;7394372;19;20501;-67
2023/05/13 03:13:13;;;;;;;9.80;5.18;;;;;;;;;;7372716;19;20022;-68
2023/05/13 03:15:38;;;;;;;10.43;4.40;;;;;;;;;;7371523;19;20503;-68
2023/05/13 03:18:04;;;;;;;8.68;4.47;;;;;;;;;;7369566;19;20006;-68
2023/05/13 03:20:30;;;;;;;9.68;4.07;;;;;;;;;;7372381;19;20017;-67
2023/05/13 03:22:55;;;;;;;7.85;4.50;;;;;;;;;;7394181;19;20002;-67
2023/05/13 03:25:20;;;;;;;8.48;4.75;;;;;;;;;;7372522;19;20037;-67
2023/05/13 03:27:46;;;;;;;6.68;4.07;;;;;;;;;;7369493;19;20021;-67
2023/05/13 03:30:12;;;;;;;9.07;5.22;;;;;;;;;;7373591;19;20044;-68
2023/05/13 03:32:38;;;;;;;6.78;4.88;;;;;;;;;;7371536;19;20425;-68
2023/05/13 03:35:03;;;;;;;13.25;4.97;;;;;;;;;;7371554;19;20003;-68
2023/05/13 03:37:29;;;;;;;9.13;4.57;;;;;;;;;;7389168;19;20375;-67
2023/05/13 03:39:54;;;;;;;8.10;4.88;;;;;;;;;;7372284;19;20018;-68
2023/05/13 03:42:19;;;;;;;8.95;5.30;;;;;;;;;;7372148;19;20006;-68
2023/05/13 03:44:45;;;;;;;8.10;4.80;;;;;;;;;;7371175;19;20018;-68
2023/05/13 03:47:10;;;;;;;9.40;5.03;;;;;;;;;;7369370;19;20006;-68
2023/05/13 03:49:36;;;;;;;7.50;4.60;;;;;;;;;;7392435;19;20002;-67
2023/05/13 03:52:01;;;;;;;10.32;4.90;;;;;;;;;;7368791;19;20802;-67
2023/05/13 03:54:27;;;;;;;12.38;5.22;;;;;;;;;;7370637;19;20461;-67
2023/05/13 03:56:52;;;;;;;13.25;5.55;;;;;;;;;;7368667;19;20460;-67
2023/05/13 03:59:17;;;;;;;9.70;4.65;;;;;;;;;;7371002;19;19999;-68
2023/05/13 04:01:42;;;;;;;13.82;5.00;;;;;;;;;;7394118;19;20512;-67
2023/05/13 04:04:08;;;;;;;8.13;4.75;;;;;;;;;;7373488;19;20652;-67
2023/05/13 04:06:33;;;;;;;14.60;4.78;;;;;;;;;;7373790;19;20134;-67
2023/05/13 04:09:00;;;;;;;13.25;4.63;;;;;;;;;;7372894;19;20006;-67
2023/05/13 04:11:25;;;;;;;13.23;4.95;;;;;;;;;;7372568;19;20475;-67
2023/05/13 04:13:50;;;;;;;10.70;4.68;;;;;;;;;;7394784;19;20019;-67
2023/05/13 04:16:16;;;;;;;9.75;4.60;;;;;;;;;;7373567;19;20023;-67
2023/05/13 04:18:41;;;;;;;10.45;4.68;;;;;;;;;;7372330;19;20023;-68
2023/05/13 04:21:07;;;;;;;11.20;4.93;;;;;;;;;;7373091;19;20017;-68
2023/05/13 04:23:33;;;;;;;12.45;4.45;;;;;;;;;;7383882;19;20006;-67
2023/05/13 04:25:58;;;;;;;8.07;4.43;;;;;;;;;;7389970;19;20502;-68
2023/05/13 04:28:23;;;;;;;6.78;4.75;;;;;;;;;;7387263;19;19998;-68
2023/05/13 04:30:49;;;;;;;8.57;4.38;;;;;;;;;;7366866;19;20019;-67
2023/05/13 04:33:15;;;;;;;11.60;4.68;;;;;;;;;;7370929;19;20002;-68
2023/05/13 04:35:41;;;;;;;9.75;4.90;;;;;;;;;;7371047;19;20067;-66
2023/05/13 04:38:06;;;;;;;12.05;4.97;;;;;;;;;;7367052;19;20014;-67
2023/05/13 04:40:31;;;;;;;8.45;4.57;;;;;;;;;;7393264;19;20009;-66
2023/05/13 04:42:57;;;;;;;7.60;4.35;;;;;;;;;;7370547;19;20010;-66
2023/05/13 04:45:25;;;;;;;11.63;4.78;;;;;;;;;;7371069;19;20018;-66
2023/05/13 04:47:50;;;;;;;10.10;4.78;;;;;;;;;;7370338;19;20016;-66
2023/05/13 04:50:15;;;;;;;6.28;4.32;;;;;;;;;;7369012;19;20003;-66
2023/05/13 04:52:45;;;;;;;7.13;4.95;;;;;;;;;;7393339;19;19995;-66
2023/05/13 04:55:10;;;;;;;9.25;4.53;;;;;;;;;;7368883;19;20010;-68
2023/05/13 04:57:36;;;;;;;9.77;4.72;;;;;;;;;;7368575;19;20010;-67
2023/05/13 05:00:02;;;;;;;6.30;4.00;;;;;;;;;;7370589;19;20476;-67
2023/05/13 05:02:31;;;;;;;5.60;3.70;;;;;;;;;;7370729;19;20011;-68
2023/05/13 05:04:57;;;;;;;7.63;3.95;;;;;;;;;;7392773;19;19998;-68
2023/05/13 05:07:22;;;;;;;5.45;3.33;;;;;;;;;;7367607;19;20031;-67
2023/05/13 05:09:48;;;;;;;5.07;3.33;;;;;;;;;;7368679;19;20006;-68
2023/05/13 05:12:13;;;;;;;7.20;3.33;;;;;;;;;;7369005;19;20010;-68
2023/05/13 05:14:39;;;;;;;6.93;3.50;;;;;;;;;;7369539;19;20011;-68
2023/05/13 05:17:04;;;;;;;6.35;3.60;;;;;;;;;;7366923;19;20342;-68
2023/05/13 05:19:30;;;;;;;6.10;3.88;;;;;;;;;;7389786;19;20027;-68
2023/05/13 05:21:55;;;;;;;7.15;3.38;;;;;;;;;;7367605;19;20042;-68
2023/05/13 05:24:20;;;;;;;6.65;3.55;;;;;;;;;;7367584;19;20034;-68
2023/05/13 05:26:46;;;;;;;8.02;3.40;;;;;;;;;;7368853;19;20007;-68
2023/05/13 05:29:11;;;;;;;6.28;3.25;;;;;;;;;;7368704;19;20031;-68
2023/05/13 05:31:37;;;;;;;8.63;3.55;;;;;;;;;;7388377;19;20003;-68
2023/05/13 05:34:02;;;;;;;11.57;3.53;;;;;;;;;;7359714;19;20021;-68
2023/05/13 05:36:28;;;;;;;5.57;3.40;;;;;;;;;;7363599;19;20532;-67
2023/05/13 05:38:53;;;;;;;8.02;3.80;;;;;;;;;;7362969;19;20006;-67
2023/05/13 05:41:20;;;;;;;6.05;3.53;;;;;;;;;;7365944;19;20019;-67
2023/05/13 05:43:45;;;;;;;10.93;3.35;;;;;;;;;;7388939;19;20010;-68
2023/05/13 05:46:11;;;;;;;4.93;3.40;;;;;;;;;;7367592;19;20014;-67
2023/05/13 05:48:36;;;;;;;4.68;3.25;;;;;;;;;;7365007;19;20074;-67
2023/05/13 05:51:02;;;;;;;8.98;3.83;;;;;;;;;;7365165;19;20053;-67
2023/05/13 05:53:27;;;;;;;7.47;3.10;;;;;;;;;;7366018;19;20045;-68
2023/05/13 05:55:52;;;;;;;11.98;4.15;;;;;;;;;;7384755;19;20005;-68
2023/05/13 05:58:18;;;;;;;10.15;3.15;;;;;;;;;;7361798;19;20074;-67
2023/05/13 06:00:43;;;;;;;5.90;2.78;;;;;;;;;;7367588;19;20013;-67
2023/05/13 06:03:09;;;;;;;6.60;3.00;;;;;;;;;;7371834;19;20035;-67
2023/05/13 06:05:34;;;;;;;5.05;3.28;;;;;;;;;;7372512;19;20014;-69
2023/05/13 06:08:00;;;;;;;4.65;2.67;;;;;;;;;;7368517;19;20552;-69
2023/05/13 06:10:25;;;;;;;4.50;2.60;;;;;;;;;;7394743;19;20013;-67
2023/05/13 06:12:51;;;;;;;5.68;2.90;;;;;;;;;;7368131;19;20343;-67
2023/05/13 06:15:16;;;;;;;4.97;3.00;;;;;;;;;;7368854;19;20003;-67
2023/05/13 06:17:41;;;;;;;7.22;2.90;;;;;;;;;;7366843;19;20003;-68
2023/05/13 06:20:07;;;;;;;6.43;3.03;;;;;;;;;;7369569;19;20415;-72
2023/05/13 06:22:32;;;;;;;4.72;2.78;;;;;;;;;;7392935;19;19999;-68
2023/05/13 06:24:58;;;;;;;5.28;2.97;;;;;;;;;;7368763;19;20027;-68
2023/05/13 06:27:23;;;;;;;4.53;2.72;;;;;;;;;;7370276;19;20010;-68
2023/05/13 06:29:49;;;;;;;6.57;3.10;;;;;;;;;;7374176;19;20050;-68
2023/05/13 06:32:15;;;;;;;4.35;2.60;;;;;;;;;;7383121;19;20018;-68
2023/05/13 06:34:44;;;;;;;4.95;2.97;;;;;;;;;;7406015;19;20017;-68
2023/05/13 06:37:10;;;;;;;8.50;3.00;;;;;;;;;;7374772;19;20022;-69
2023/05/13 06:39:36;;;;;;;6.90;2.90;;;;;;;;;;7371566;19;20007;-67
2023/05/13 06:42:02;;;;;;;5.35;3.10;;;;;;;;;;7367807;19;20003;-68
2023/05/13 06:44:27;;;;;;;8.07;3.33;;;;;;;;;;7375994;19;20030;-68
2023/05/13 06:46:52;;;;;;;5.85;3.00;;;;;;;;;;7397593;19;20074;-68
2023/05/13 06:49:18;;;;;;;5.05;2.83;;;;;;;;;;7378970;19;20006;-69
2023/05/13 06:51:43;;;;;;;4.38;3.10;;;;;;;;;;7380822;19;20015;-67
2023/05/13 06:54:08;;;;;;;5.97;3.08;;;;;;;;;;7382731;19;20009;-67
2023/05/13 06:56:34;;;;;;;6.38;2.80;;;;;;;;;;7375369;19;20014;-67
2023/05/13 06:58:59;;;;;;;7.07;3.28;;;;;;;;;;7375508;19;20080;-67
2023/05/13 07:01:24;;;;;;;5.20;2.80;;;;;;;;;;7396268;19;20598;-68
2023/05/13 07:03:50;;;;;;;6.68;3.33;;;;;;;;;;7375685;19;20030;-68
2023/05/13 07:06:15;;;;;;;4.35;2.80;;;;;;;;;;7375968;19;20010;-67
2023/05/13 07:08:40;;;;;;;5.55;3.00;;;;;;;;;;7376496;19;20006;-67
2023/05/13 07:11:05;;;;;;;7.70;3.20;;;;;;;;;;7374045;19;20364;-67
2023/05/13 07:13:33;;;;;;;6.95;2.75;;;;;;;;;;7393706;19;20377;-67
2023/05/13 07:15:59;;;;;;;6.38;2.80;;;;;;;;;;7373114;19;20009;-66
2023/05/13 07:18:24;;;;;;;8.18;3.08;;;;;;;;;;7376276;19;20006;-67
2023/05/13 07:20:49;;;;;;;5.28;2.65;;;;;;;;;;7374522;19;20003;-67
2023/05/13 07:23:15;;;;;;;4.53;2.65;;;;;;;;;;7373893;19;20098;-67
2023/05/13 07:25:40;;;;;;;5.88;3.03;;;;;;;;;;7395514;19;20012;-67
2023/05/13 07:28:06;;;;;;;9.00;2.70;;;;;;;;;;7369544;19;20039;-67
2023/05/13 07:30:31;;;;;;;4.88;2.78;;;;;;;;;;7372540;19;20047;-68
2023/05/13 07:32:56;;;;;;;5.40;2.90;;;;;;;;;;7375642;19;20039;-68
2023/05/13 07:35:22;;;;;;;4.63;2.53;;;;;;;;;;7379960;19;20864;-67
2023/05/13 07:37:47;;;;;;;4.55;2.58;;;;;;;;;;7404820;19;20456;-67
2023/05/13 07:40:12;;;;;;;4.35;2.75;;;;;;;;;;7386256;19;20014;-67
2023/05/13 07:42:39;;;;;;;3.78;2.20;;;;;;;;;;7383983;19;20022;-67
2023/05/13 07:45:05;;;;;;;5.65;2.53;;;;;;;;;;7375827;19;20014;-68
2023/05/13 07:47:32;;;;;;;6.65;2.63;;;;;;;;;;7370995;19;20038;-68
2023/05/13 07:49:57;;;;;;;6.03;2.40;;;;;;;;;;7393764;19;20043;-73
2023/05/13 07:52:23;;;;;;;4.85;2.47;;;;;;;;;;7380164;19;20425;-68
2023/05/13 07:54:48;;;;;;;4.28;2.45;;;;;;;;;;7370677;19;20035;-68
2023/05/13 07:57:14;;;;;;;5.30;2.47;;;;;;;;;;7369652;19;20010;-69
2023/05/13 07:59:39;;;;;;;7.03;3.15;;;;;;;;;;7372753;19;20017;-68
2023/05/13 08:02:05;;;;;;;5.53;2.30;;;;;;;;;;7372256;19;20031;-68
2023/05/13 08:04:31;;;;;;;4.78;2.58;;;;;;;;;;7392461;19;20010;-69
2023/05/13 08:06:56;;;;;;;7.35;2.72;;;;;;;;;;7368382;19;20023;-67
2023/05/13 08:09:22;;;;;;;6.13;2.60;;;;;;;;;;7363514;19;20011;-67
2023/05/13 08:11:47;;;;;;;7.10;2.60;;;;;;;;;;7369560;19;20009;-67
2023/05/13 08:14:12;;;;;;;6.85;2.40;;;;;;;;;;7372351;19;20046;-68
2023/05/13 08:16:37;;;;;;;6.20;2.42;;;;;;;;;;7396826;19;20468;-68
2023/05/13 08:19:03;;;;;;;4.85;2.25;;;;;;;;;;7371111;19;20017;-68
2023/05/13 08:21:29;;;;;;;4.75;2.30;;;;;;;;;;7369823;19;20394;-69
2023/05/13 08:23:54;;;;;;;3.63;1.98;;;;;;;;;;7364537;19;20006;-68
2023/05/13 08:26:19;;;;;;;5.07;2.35;;;;;;;;;;7366837;19;20403;-68
2023/05/13 08:28:45;;;;;;;6.22;2.38;;;;;;;;;;7388032;19;20464;-68
2023/05/13 08:31:11;;;;;;;3.33;2.05;;;;;;;;;;7373192;19;20010;-68
2023/05/13 08:33:37;;;;;;;3.35;2.17;;;;;;;;;;7369166;19;20010;-68
2023/05/13 08:36:02;;;;;;;7.30;2.20;;;;;;;;;;7366581;19;20010;-68
2023/05/13 08:38:28;;;;;;;5.38;2.28;;;;;;;;;;7364972;19;20017;-68
2023/05/13 08:40:53;;;;;;;3.70;2.70;;;;;;;;;;7387308;19;20009;-67
2023/05/13 08:43:19;;;;;;;4.45;2.22;;;;;;;;;;7367534;19;20002;-68
2023/05/13 08:45:46;;;;;;;5.75;2.47;;;;;;;;;;7366262;19;20002;-67
2023/05/13 08:48:14;;;;;;;4.63;2.28;;;;;;;;;;7366881;19;20017;-70
2023/05/13 08:50:40;;;;;;;5.50;2.33;;;;;;;;;;7370392;19;20361;-67
2023/05/13 08:53:06;;;;;;;5.13;2.40;;;;;;;;;;7367299;19;20002;-67
2023/05/13 08:55:31;;;;;;;4.07;2.47;;;;;;;;;;7386654;19;20003;-67
2023/05/13 08:57:57;;;;;;;5.70;2.33;;;;;;;;;;7362979;19;20044;-68
2023/05/13 09:00:22;;;;;;;5.28;2.20;;;;;;;;;;7366948;19;20013;-68
2023/05/13 09:02:49;;;;;;;3.13;2.20;;;;;;;;;;7364816;19;20058;-68
2023/05/13 09:05:15;;;;;;;4.53;2.35;;;;;;;;;;7366422;19;20002;-67
2023/05/13 09:07:40;;;;;;;5.05;2.30;;;;;;;;;;7383552;19;20002;-68
2023/05/13 09:10:06;;;;;;;5.47;2.10;;;;;;;;;;7366479;19;20035;-67
2023/05/13 09:12:48;;;;;;;4.40;2.35;;;;;;;;;;7366671;19;20016;-65
2023/05/13 09:15:18;;;;;;;4.28;2.35;;;;;;;;;;7367508;19;20079;-66
2023/05/13 09:17:47;;;;;;;4.43;2.13;;;;;;;;;;7364726;19;20011;-67
2023/05/13 09:20:14;;;;;;;4.72;2.47;;;;;;;;;;7367661;19;20019;-66
2023/05/13 09:22:55;;;;;;;3.63;2.22;;;;;;;;;;7388041;19;20005;-65
2023/05/13 09:25:24;;;;;;;3.63;2.20;;;;;;;;;;7365894;19;19999;-66
2023/05/13 09:27:56;;;;;;;5.43;2.13;;;;;;;;;;7362962;19;20006;-66
2023/05/13 09:30:22;;;;;;;6.30;2.42;;;;;;;;;;7366207;19;20078;-63
2023/05/13 09:33:07;;;;;;;3.95;2.35;;;;;;;;;;7362930;19;20045;-63
2023/05/13 09:35:33;;;;;;;4.10;2.20;;;;;;;;;;7364584;19;20003;-65
2023/05/13 09:37:59;;;;;;;4.65;2.35;;;;;;;;;;7373515;19;20338;-64
2023/05/13 09:40:24;;;;;;;3.72;2.30;;;;;;;;;;7393253;19;19998;-64
2023/05/13 09:42:50;;;;;;;5.35;2.35;;;;;;;;;;7371983;19;20438;-64
2023/05/13 09:45:16;;;;;;;4.93;2.40;;;;;;;;;;7370116;19;20002;-64
2023/05/13 09:47:42;;;;;;;3.97;2.38;;;;;;;;;;7371107;19;20007;-66
2023/05/13 09:50:10;;;;;;;4.93;2.30;;;;;;;;;;7376152;19;20007;-66
2023/05/13 09:52:37;;;;;;;5.18;2.58;;;;;;;;;;7397891;19;20024;-64
2023/05/13 09:55:04;;;;;;;4.78;2.60;;;;;;;;;;7368280;19;20010;-64
2023/05/13 09:57:31;;;;;;;3.80;2.40;;;;;;;;;;7368353;19;20406;-64
2023/05/13 09:59:58;;;;;;;4.05;2.40;;;;;;;;;;7373882;19;20014;-62
2023/05/13 10:02:24;;;;;;;7.15;2.67;;;;;;;;;;7377221;19;20014;-62
2023/05/13 10:04:50;;;;;;;6.28;2.55;;;;;;;;;;7395690;19;20070;-63
2023/05/13 10:07:17;;;;;;;5.20;2.55;;;;;;;;;;7366962;19;20107;-64
2023/05/13 10:09:45;;;;;;;4.15;2.45;;;;;;;;;;7369680;19;20425;-62
2023/05/13 10:12:13;;;;;;;7.78;2.67;;;;;;;;;;7370228;19;20014;-64
2023/05/13 10:14:39;;;;;;;5.28;2.83;;;;;;;;;;7370732;19;20023;-64
2023/05/13 10:17:05;;;;;;;6.15;2.60;;;;;;;;;;7368563;19;20011;-64
2023/05/13 10:19:31;;;;;;;5.13;2.63;;;;;;;;;;7394283;19;20003;-64
2023/05/13 10:21:58;;;;;;;5.32;2.90;;;;;;;;;;7373932;19;20033;-64
2023/05/13 10:24:25;;;;;;;5.13;2.80;;;;;;;;;;7374890;19;20010;-61
2023/05/13 10:26:51;;;;;;;6.05;2.70;;;;;;;;;;7375777;19;20018;-65
2023/05/13 10:29:17;;;;;;;10.07;2.67;;;;;;;;;;7377686;19;20002;-64
2023/05/13 10:31:44;;;;;;;5.47;2.67;;;;;;;;;;7397290;19;20026;-65
2023/05/13 10:34:11;;;;;;;5.10;3.00;;;;;;;;;;7377147;19;20010;-66
2023/05/13 10:37:10;;;;;;;4.65;2.80;;;;;;;;;;7377126;19;20090;-65
2023/05/13 10:39:56;;;;;;;6.05;2.60;;;;;;;;;;7379721;19;20006;-69
2023/05/13 10:42:37;;;;;;;3.28;2.08;;;;;;;;;;7378811;19;20018;-66
2023/05/13 10:45:02;;;;;;;5.47;3.03;;;;;;;;;;7378996;19;20044;-66
2023/05/13 10:47:31;;;;;;;4.78;2.70;;;;;;;;;;7371438;19;20024;-65
2023/05/13 10:49:57;;;;;;;5.43;2.75;;;;;;;;;;7399210;19;20006;-66
2023/05/13 10:52:22;;;;;;;7.55;2.92;;;;;;;;;;7375888;19;20023;-67
2023/05/13 10:55:01;;;;;;;5.63;2.90;;;;;;;;;;7374330;19;20007;-65
2023/05/13 10:57:37;;;;;;;8.15;2.60;;;;;;;;;;7371407;19;20019;-69
2023/05/13 11:00:16;;;;;;;3.85;2.58;;;;;;;;;;7377147;19;20386;-70
2023/05/13 11:02:42;;;;;;;4.70;2.57;;;;;;;;;;7375906;19;20006;-70
2023/05/13 11:05:07;;;;;;;4.93;2.70;;;;;;;;;;7374402;19;20354;-69
2023/05/13 11:07:38;;;;;;;4.68;2.22;;;;;;;;;;7394869;19;20105;-70
2023/05/13 11:10:04;;;;;;;5.63;2.72;;;;;;;;;;7376057;19;20006;-70
2023/05/13 11:12:29;;;;;;;5.10;2.83;;;;;;;;;;7379936;19;20041;-70
2023/05/13 11:14:55;;;;;;;4.88;3.58;;;;;;;;;;7378406;19;20003;-71
2023/05/13 11:17:20;;;;;;;7.40;2.85;;;;;;;;;;7374471;19;20031;-70
2023/05/13 11:19:48;;;;;;;5.85;3.00;;;;;;;;;;7397587;19;20011;-69
2023/05/13 11:22:17;;;;;;;7.03;2.90;;;;;;;;;;7375634;19;20014;-70
2023/05/13 11:25:02;;;;;;;4.63;2.75;;;;;;;;;;7369306;19;20713;-70
2023/05/13 11:27:32;;;;;;;4.60;2.60;;;;;;;;;;7371681;19;20018;-70
2023/05/13 11:29:57;;;;;;;4.05;2.65;;;;;;;;;;7372002;19;20010;-69
2023/05/13 11:32:52;;;;;;;5.43;2.90;;;;;;;;;;7373390;19;20044;-69
2023/05/13 11:35:37;;;;;;;5.05;2.72;;;;;;;;;;7369479;19;20087;-69
2023/05/13 11:38:04;;;;;;;5.97;2.72;;;;;;;;;;7369813;19;20002;-70
2023/05/13 11:40:35;;;;;;;4.18;2.40;;;;;;;;;;7396881;19;20018;-70
2023/05/13 11:43:00;;;;;;;;;;;;;;;;;;7375233;19;20050;-66
2023/05/13 11:45:27;;;;;;;5.00;2.92;;;;;;;;;;7372871;19;20234;-65
2023/05/13 11:47:53;;;;;;;4.55;2.60;;;;;;;;;;7371237;19;20014;-68
2023/05/13 11:50:25;;;;;;;6.18;2.80;;;;;;;;;;7375410;19;20024;-66
2023/05/13 11:52:58;;;;;;;5.40;2.75;;;;;;;;;;7395141;19;20003;-66
2023/05/13 11:55:25;;;;;;;5.03;2.90;;;;;;;;;;7370741;19;20021;-66
2023/05/13 11:57:50;;;;;;;5.45;2.47;;;;;;;;;;7366658;19;20374;-66
2023/05/13 12:00:16;;;;;;;4.25;2.30;;;;;;;;;;7370107;19;20007;-66
2023/05/13 12:02:42;;;;;;;5.38;2.72;;;;;;;;;;7371998;19;20009;-65
2023/05/13 12:05:10;;;;;;;5.32;2.13;;;;;;;;;;7370904;19;20005;-65
2023/05/13 12:07:36;;;;;;;3.17;2.10;;;;;;;;;;7390705;19;20037;-65
2023/05/13 12:10:04;;;;;;;3.85;2.20;;;;;;;;;;7370235;19;20081;-65
2023/05/13 12:12:33;;;;;;;4.78;2.10;;;;;;;;;;7370769;19;20104;-66
2023/05/13 12:15:00;;;;;;;5.70;2.22;;;;;;;;;;7370980;19;20030;-65
2023/05/13 12:17:26;;;;;;;6.20;2.42;;;;;;;;;;7370407;19;20043;-65
2023/05/13 12:20:11;;;;;;;6.10;2.33;;;;;;;;;;7393815;19;20002;-66
2023/05/13 12:22:49;;;;;;;3.63;2.00;;;;;;;;;;7371183;19;19999;-65
2023/05/13 12:25:39;;;;;;;3.80;2.28;;;;;;;;;;7370659;19;20042;-66
2023/05/13 12:28:25;;;;;;;3.58;2.10;;;;;;;;;;7367642;19;20341;-66
2023/05/13 12:30:59;;;;;;;3.25;2.10;;;;;;;;;;7371311;19;20044;-65
2023/05/13 12:33:25;;;;;;;4.50;2.17;;;;;;;;;;7372744;19;20079;-65
2023/05/13 12:35:53;;;;;;;5.80;2.42;;;;;;;;;;7373347;19;20018;-66
2023/05/13 12:38:23;;;;;;;5.13;2.17;;;;;;;;;;7369052;19;20090;-67
2023/05/13 12:40:50;;;;;;;5.78;2.50;;;;;;;;;;7392988;19;20006;-67
2023/05/13 12:43:17;;;;;;;5.00;2.42;;;;;;;;;;7370156;19;20484;-66
2023/05/13 12:45:45;;;;;;;3.92;2.28;;;;;;;;;;7370261;19;20014;-66
2023/05/13 12:48:12;;;;;;;5.95;2.70;;;;;;;;;;7367753;19;20472;-67
2023/05/13 12:50:37;;;;;;;4.18;2.63;;;;;;;;;;7369186;19;20092;-66
2023/05/13 12:53:03;;;;;;;4.65;2.42;;;;;;;;;;7370033;19;20037;-65
2023/05/13 12:55:28;;;;;;;5.40;2.22;;;;;;;;;;7390161;19;19998;-65
2023/05/13 12:58:00;;;;;;;4.20;2.50;;;;;;;;;;7366320;19;20010;-65
2023/05/13 13:00:26;;;;;;;5.85;2.30;;;;;;;;;;7370395;19;20003;-66
2023/05/13 13:02:52;;;;;;;4.03;2.40;;;;;;;;;;7370139;19;20010;-66
2023/05/13 13:05:19;;;;;;;4.20;2.42;;;;;;;;;;7370251;19;20037;-66
2023/05/13 13:07:45;;;;;;;4.78;2.80;;;;;;;;;;7389825;19;20003;-66
2023/05/13 13:10:11;;;;;;;6.75;2.75;;;;;;;;;;7367435;19;20010;-64
2023/05/13 13:12:36;;;;;;;5.95;2.83;;;;;;;;;;7370160;19;20002;-66
2023/05/13 13:15:02;;;;;;;4.22;2.65;;;;;;;;;;7370619;19;20007;-66
2023/05/13 13:17:27;;;;;;;5.75;2.00;;;;;;;;;;7368475;19;20007;-67
2023/05/13 13:19:53;;;;;;;6.13;2.35;;;;;;;;;;7390652;19;20035;-65
2023/05/13 13:22:18;;;;;;;4.82;2.47;;;;;;;;;;7369111;19;20006;-66
2023/05/13 13:24:43;;;;;;;5.18;2.42;;;;;;;;;;7369354;19;20039;-66
2023/05/13 13:27:10;;;;;;;6.75;2.30;;;;;;;;;;7367928;19;20380;-67
2023/05/13 13:29:35;;;;;;;5.70;2.50;;;;;;;;;;7368499;19;20082;-66
2023/05/13 13:32:01;;;;;;;7.85;2.60;;;;;;;;;;7369496;19;20003;-66
2023/05/13 13:34:26;;;;;;;5.60;2.38;;;;;;;;;;7391710;19;20013;-66
2023/05/13 13:36:52;;;;;;;6.03;2.30;;;;;;;;;;7369508;19;20011;-66
2023/05/13 13:39:17;;;;;;;3.15;2.00;;;;;;;;;;7369232;19;20015;-66
2023/05/13 13:41:42;;;;;;;6.25;2.28;;;;;;;;;;7369818;19;20481;-70
2023/05/13 13:44:08;;;;;;;3.88;1.90;;;;;;;;;;7370582;19;20022;-71
2023/05/13 13:46:33;;;;;;;3.58;1.70;;;;;;;;;;7390666;19;20026;-69
2023/05/13 13:48:58;;;;;;;3.03;1.90;;;;;;;;;;7368712;19;20078;-70
2023/05/13 13:51:24;;;;;;;6.03;2.08;;;;;;;;;;7373588;19;20074;-70
2023/05/13 13:53:49;;;;;;;2.88;1.85;;;;;;;;;;7373395;19;20002;-70
2023/05/13 13:56:15;;;;;;;7.10;2.65;;;;;;;;;;7367583;19;20017;-70
2023/05/13 13:58:40;;;;;;;3.92;2.20;;;;;;;;;;7389787;19;20039;-65
2023/05/13 14:01:05;;;;;;;3.42;2.00;;;;;;;;;;7368191;19;20003;-65
2023/05/13 14:03:31;;;;;;;5.15;2.30;;;;;;;;;;7368788;19;20015;-65
2023/05/13 14:05:56;;;;;;;4.43;2.30;;;;;;;;;;7367896;19;20010;-66
2023/05/13 14:08:21;;;;;;;8.73;2.33;;;;;;;;;;7365901;19;20024;-65
2023/05/13 14:10:47;;;;;;;3.70;1.90;;;;;;;;;;7389561;19;20488;-65
2023/05/13 14:13:12;;;;;;;3.50;2.00;;;;;;;;;;7367635;19;20026;-66
2023/05/13 14:15:37;;;;;;;3.42;1.70;;;;;;;;;;7365513;19;20015;-66
2023/05/13 14:18:07;;;;;;;2.58;1.52;;;;;;;;;;7365552;19;20038;-66
2023/05/13 14:20:34;;;;;;;2.42;1.85;;;;;;;;;;7367452;19;20027;-66
2023/05/13 14:23:00;;;;;;;4.22;2.30;;;;;;;;;;7374527;19;20003;-69
2023/05/13 14:25:25;;;;;;;4.95;2.10;;;;;;;;;;7395149;19;20002;-68
2023/05/13 14:27:51;;;;;;;4.47;2.10;;;;;;;;;;7368998;19;20104;-65
2023/05/13 14:30:16;;;;;;;3.30;2.10;;;;;;;;;;7375170;19;20066;-66
2023/05/13 14:32:43;;;;;;;3.33;2.13;;;;;;;;;;7374953;19;20011;-67
2023/05/13 14:35:09;;;;;;;4.00;2.10;;;;;;;;;;7373962;19;20013;-68
2023/05/13 14:37:35;;;;;;;3.63;2.28;;;;;;;;;;7394167;19;20006;-67
2023/05/13 14:40:00;;;;;;;2.42;1.88;;;;;;;;;;7373713;19;20490;-67